sensor_id;sensor_type;location;lat;lon;timestamp;P1;durP1;ratioP1;P2;durP2;ratioP2
44165;SDS011;30476;53.468;9.826;2023-08-01T00:00:51;1.33;;;0.90;;
44165;SDS011;30476;53.468;9.826;2023-08-01T00:03:17;0.60;;;0.60;;
44165;SDS011;30476;53.468;9.826;2023-08-01T00:05:42;1.60;;;0.73;;
44165;SDS011;30476;53.468;9.826;2023-08-01T00:08:13;0.80;;;0.80;;
44165;SDS011;30476;53.468;9.826;2023-08-01T00:10:40;1.13;;;0.77;;
44165;SDS011;30476;53.468;9.826;2023-08-01T00:13:06;0.70;;;0.70;;
44165;SDS011;30476;53.468;9.826;2023-08-01T00:15:33;3.23;;;1.07;;
44165;SDS011;30476;53.468;9.826;2023-08-01T00:17:58;0.60;;;0.60;;
44165;SDS011;30476;53.468;9.826;2023-08-01T00:20:24;0.70;;;0.70;;
44165;SDS011;30476;53.468;9.826;2023-08-01T00:22:50;0.70;;;0.70;;
44165;SDS011;30476;53.468;9.826;2023-08-01T00:25:17;0.70;;;0.70;;
44165;SDS011;30476;53.468;9.826;2023-08-01T00:27:43;1.90;;;0.80;;
44165;SDS011;30476;53.468;9.826;2023-08-01T00:30:09;0.77;;;0.77;;
44165;SDS011;30476;53.468;9.826;2023-08-01T00:32:35;0.93;;;0.93;;
44165;SDS011;30476;53.468;9.826;2023-08-01T00:35:01;0.80;;;0.77;;
44165;SDS011;30476;53.468;9.826;2023-08-01T00:37:27;1.07;;;0.60;;
44165;SDS011;30476;53.468;9.826;2023-08-01T00:39:52;0.83;;;0.83;;
44165;SDS011;30476;53.468;9.826;2023-08-01T00:42:18;0.80;;;0.80;;
44165;SDS011;30476;53.468;9.826;2023-08-01T00:44:44;0.97;;;0.80;;
44165;SDS011;30476;53.468;9.826;2023-08-01T00:47:12;1.10;;;1.00;;
44165;SDS011;30476;53.468;9.826;2023-08-01T00:49:37;0.70;;;0.70;;
44165;SDS011;30476;53.468;9.826;2023-08-01T00:52:04;1.90;;;1.00;;
44165;SDS011;30476;53.468;9.826;2023-08-01T00:54:30;1.00;;;1.00;;
44165;SDS011;30476;53.468;9.826;2023-08-01T00:57:02;1.17;;;1.07;;
44165;SDS011;30476;53.468;9.826;2023-08-01T00:59:31;1.83;;;1.27;;
44165;SDS011;30476;53.468;9.826;2023-08-01T01:01:57;1.40;;;1.30;;
44165;SDS011;30476;53.468;9.826;2023-08-01T01:04:24;2.97;;;0.90;;
44165;SDS011;30476;53.468;9.826;2023-08-01T01:06:51;4.80;;;1.23;;
44165;SDS011;30476;53.468;9.826;2023-08-01T01:09:22;5.37;;;1.07;;
44165;SDS011;30476;53.468;9.826;2023-08-01T01:11:48;1.40;;;1.30;;
44165;SDS011;30476;53.468;9.826;2023-08-01T01:14:14;2.10;;;1.00;;
44165;SDS011;30476;53.468;9.826;2023-08-01T01:16:39;1.07;;;0.90;;
44165;SDS011;30476;53.468;9.826;2023-08-01T01:19:06;1.07;;;0.90;;
44165;SDS011;30476;53.468;9.826;2023-08-01T01:21:34;1.17;;;1.07;;
44165;SDS011;30476;53.468;9.826;2023-08-01T01:24:03;1.73;;;1.60;;
44165;SDS011;30476;53.468;9.826;2023-08-01T01:26:31;1.60;;;1.50;;
44165;SDS011;30476;53.468;9.826;2023-08-01T01:28:58;1.07;;;1.07;;
44165;SDS011;30476;53.468;9.826;2023-08-01T01:31:25;1.10;;;1.10;;
44165;SDS011;30476;53.468;9.826;2023-08-01T01:33:53;1.33;;;1.23;;
44165;SDS011;30476;53.468;9.826;2023-08-01T01:36:20;1.80;;;1.70;;
44165;SDS011;30476;53.468;9.826;2023-08-01T01:38:46;1.80;;;1.70;;
44165;SDS011;30476;53.468;9.826;2023-08-01T01:41:11;1.20;;;1.10;;
44165;SDS011;30476;53.468;9.826;2023-08-01T01:43:37;1.60;;;1.50;;
44165;SDS011;30476;53.468;9.826;2023-08-01T01:46:03;1.40;;;1.30;;
44165;SDS011;30476;53.468;9.826;2023-08-01T01:48:29;1.70;;;1.60;;
44165;SDS011;30476;53.468;9.826;2023-08-01T01:50:55;1.83;;;1.73;;
44165;SDS011;30476;53.468;9.826;2023-08-01T01:53:21;2.00;;;1.40;;
44165;SDS011;30476;53.468;9.826;2023-08-01T01:55:46;2.13;;;1.80;;
44165;SDS011;30476;53.468;9.826;2023-08-01T01:58:12;2.50;;;1.80;;
44165;SDS011;30476;53.468;9.826;2023-08-01T02:00:38;2.03;;;1.90;;
44165;SDS011;30476;53.468;9.826;2023-08-01T02:03:04;1.83;;;1.60;;
44165;SDS011;30476;53.468;9.826;2023-08-01T02:05:29;5.33;;;2.33;;
44165;SDS011;30476;53.468;9.826;2023-08-01T02:07:55;3.17;;;1.90;;
44165;SDS011;30476;53.468;9.826;2023-08-01T02:10:21;3.40;;;2.10;;
44165;SDS011;30476;53.468;9.826;2023-08-01T02:12:47;2.00;;;1.67;;
44165;SDS011;30476;53.468;9.826;2023-08-01T02:15:13;2.47;;;2.37;;
44165;SDS011;30476;53.468;9.826;2023-08-01T02:17:39;2.70;;;2.07;;
44165;SDS011;30476;53.468;9.826;2023-08-01T02:20:05;2.30;;;2.20;;
44165;SDS011;30476;53.468;9.826;2023-08-01T02:22:32;3.00;;;2.03;;
44165;SDS011;30476;53.468;9.826;2023-08-01T02:24:58;4.93;;;2.57;;
44165;SDS011;30476;53.468;9.826;2023-08-01T02:27:24;2.47;;;2.33;;
44165;SDS011;30476;53.468;9.826;2023-08-01T02:29:49;2.73;;;2.57;;
44165;SDS011;30476;53.468;9.826;2023-08-01T02:32:16;3.87;;;3.10;;
44165;SDS011;30476;53.468;9.826;2023-08-01T02:34:42;15.30;;;2.63;;
44165;SDS011;30476;53.468;9.826;2023-08-01T02:37:08;3.87;;;2.77;;
44165;SDS011;30476;53.468;9.826;2023-08-01T02:39:34;2.90;;;2.50;;
44165;SDS011;30476;53.468;9.826;2023-08-01T02:42:00;2.27;;;2.17;;
44165;SDS011;30476;53.468;9.826;2023-08-01T02:44:26;3.90;;;3.03;;
44165;SDS011;30476;53.468;9.826;2023-08-01T02:46:52;2.53;;;2.33;;
44165;SDS011;30476;53.468;9.826;2023-08-01T02:49:18;3.70;;;2.80;;
44165;SDS011;30476;53.468;9.826;2023-08-01T02:51:44;2.70;;;2.50;;
44165;SDS011;30476;53.468;9.826;2023-08-01T02:54:09;2.97;;;2.77;;
44165;SDS011;30476;53.468;9.826;2023-08-01T02:56:35;4.67;;;3.20;;
44165;SDS011;30476;53.468;9.826;2023-08-01T02:59:09;2.63;;;2.43;;
44165;SDS011;30476;53.468;9.826;2023-08-01T03:01:35;2.17;;;2.03;;
44165;SDS011;30476;53.468;9.826;2023-08-01T03:04:02;2.40;;;2.27;;
44165;SDS011;30476;53.468;9.826;2023-08-01T03:06:29;3.70;;;2.50;;
44165;SDS011;30476;53.468;9.826;2023-08-01T03:08:55;2.80;;;2.53;;
44165;SDS011;30476;53.468;9.826;2023-08-01T03:11:21;2.07;;;1.93;;
44165;SDS011;30476;53.468;9.826;2023-08-01T03:13:47;3.80;;;3.50;;
44165;SDS011;30476;53.468;9.826;2023-08-01T03:16:12;3.27;;;2.70;;
44165;SDS011;30476;53.468;9.826;2023-08-01T03:18:38;6.43;;;2.47;;
44165;SDS011;30476;53.468;9.826;2023-08-01T03:21:04;3.10;;;2.90;;
44165;SDS011;30476;53.468;9.826;2023-08-01T03:23:30;3.70;;;2.40;;
44165;SDS011;30476;53.468;9.826;2023-08-01T03:25:55;2.30;;;2.10;;
44165;SDS011;30476;53.468;9.826;2023-08-01T03:28:21;2.10;;;1.90;;
44165;SDS011;30476;53.468;9.826;2023-08-01T03:30:47;3.60;;;3.00;;
44165;SDS011;30476;53.468;9.826;2023-08-01T03:33:16;3.10;;;2.60;;
44165;SDS011;30476;53.468;9.826;2023-08-01T03:35:41;3.27;;;2.90;;
44165;SDS011;30476;53.468;9.826;2023-08-01T03:38:07;3.73;;;2.97;;
44165;SDS011;30476;53.468;9.826;2023-08-01T03:40:33;2.90;;;2.70;;
44165;SDS011;30476;53.468;9.826;2023-08-01T03:42:59;4.03;;;2.57;;
44165;SDS011;30476;53.468;9.826;2023-08-01T03:45:24;3.43;;;2.83;;
44165;SDS011;30476;53.468;9.826;2023-08-01T03:47:50;7.90;;;1.97;;
44165;SDS011;30476;53.468;9.826;2023-08-01T03:50:16;2.67;;;2.47;;
44165;SDS011;30476;53.468;9.826;2023-08-01T03:52:42;9.13;;;2.20;;
44165;SDS011;30476;53.468;9.826;2023-08-01T03:55:08;2.77;;;2.57;;
44165;SDS011;30476;53.468;9.826;2023-08-01T03:57:34;6.50;;;3.30;;
44165;SDS011;30476;53.468;9.826;2023-08-01T04:00:00;2.73;;;2.47;;
44165;SDS011;30476;53.468;9.826;2023-08-01T04:02:25;3.43;;;2.27;;
44165;SDS011;30476;53.468;9.826;2023-08-01T04:04:51;3.17;;;2.90;;
44165;SDS011;30476;53.468;9.826;2023-08-01T04:07:18;2.60;;;2.40;;
44165;SDS011;30476;53.468;9.826;2023-08-01T04:09:44;3.07;;;2.53;;
44165;SDS011;30476;53.468;9.826;2023-08-01T04:12:10;3.63;;;3.33;;
44165;SDS011;30476;53.468;9.826;2023-08-01T04:14:35;3.47;;;3.17;;
44165;SDS011;30476;53.468;9.826;2023-08-01T04:17:01;3.77;;;2.80;;
44165;SDS011;30476;53.468;9.826;2023-08-01T04:19:27;4.17;;;3.50;;
44165;SDS011;30476;53.468;9.826;2023-08-01T04:21:53;4.30;;;2.33;;
44165;SDS011;30476;53.468;9.826;2023-08-01T04:24:18;3.27;;;3.07;;
44165;SDS011;30476;53.468;9.826;2023-08-01T04:26:44;2.73;;;2.53;;
44165;SDS011;30476;53.468;9.826;2023-08-01T04:29:10;2.80;;;2.53;;
44165;SDS011;30476;53.468;9.826;2023-08-01T04:31:41;3.17;;;2.87;;
44165;SDS011;30476;53.468;9.826;2023-08-01T04:34:06;5.70;;;3.42;;
44165;SDS011;30476;53.468;9.826;2023-08-01T04:36:32;4.47;;;2.73;;
44165;SDS011;30476;53.468;9.826;2023-08-01T04:38:58;2.67;;;2.43;;
44165;SDS011;30476;53.468;9.826;2023-08-01T04:41:23;2.70;;;2.50;;
44165;SDS011;30476;53.468;9.826;2023-08-01T04:43:49;2.60;;;2.40;;
44165;SDS011;30476;53.468;9.826;2023-08-01T04:46:15;3.70;;;2.97;;
44165;SDS011;30476;53.468;9.826;2023-08-01T04:48:41;3.00;;;2.27;;
44165;SDS011;30476;53.468;9.826;2023-08-01T04:51:06;2.67;;;2.47;;
44165;SDS011;30476;53.468;9.826;2023-08-01T04:53:32;4.70;;;3.00;;
44165;SDS011;30476;53.468;9.826;2023-08-01T04:55:58;5.50;;;2.90;;
44165;SDS011;30476;53.468;9.826;2023-08-01T04:58:24;2.33;;;1.80;;
44165;SDS011;30476;53.468;9.826;2023-08-01T05:00:50;2.43;;;2.23;;
44165;SDS011;30476;53.468;9.826;2023-08-01T05:03:16;3.83;;;3.00;;
44165;SDS011;30476;53.468;9.826;2023-08-01T05:05:42;5.50;;;3.60;;
44165;SDS011;30476;53.468;9.826;2023-08-01T05:08:08;2.10;;;2.00;;
44165;SDS011;30476;53.468;9.826;2023-08-01T05:10:33;2.13;;;2.03;;
44165;SDS011;30476;53.468;9.826;2023-08-01T05:12:59;2.10;;;1.90;;
44165;SDS011;30476;53.468;9.826;2023-08-01T05:15:25;3.20;;;1.70;;
44165;SDS011;30476;53.468;9.826;2023-08-01T05:17:52;2.60;;;1.83;;
44165;SDS011;30476;53.468;9.826;2023-08-01T05:20:20;2.87;;;2.23;;
44165;SDS011;30476;53.468;9.826;2023-08-01T05:22:46;3.30;;;1.50;;
44165;SDS011;30476;53.468;9.826;2023-08-01T05:25:12;2.40;;;1.77;;
44165;SDS011;30476;53.468;9.826;2023-08-01T05:27:38;1.90;;;1.70;;
44165;SDS011;30476;53.468;9.826;2023-08-01T05:30:03;2.00;;;1.80;;
44165;SDS011;30476;53.468;9.826;2023-08-01T05:32:29;2.70;;;1.87;;
44165;SDS011;30476;53.468;9.826;2023-08-01T05:34:55;2.23;;;1.90;;
44165;SDS011;30476;53.468;9.826;2023-08-01T05:37:21;2.37;;;1.87;;
44165;SDS011;30476;53.468;9.826;2023-08-01T05:39:47;2.13;;;1.67;;
44165;SDS011;30476;53.468;9.826;2023-08-01T05:42:12;2.27;;;1.87;;
44165;SDS011;30476;53.468;9.826;2023-08-01T05:44:38;3.27;;;1.90;;
44165;SDS011;30476;53.468;9.826;2023-08-01T05:47:04;1.80;;;1.70;;
44165;SDS011;30476;53.468;9.826;2023-08-01T05:49:30;1.60;;;1.50;;
44165;SDS011;30476;53.468;9.826;2023-08-01T05:51:56;3.60;;;1.43;;
44165;SDS011;30476;53.468;9.826;2023-08-01T05:54:22;2.40;;;1.73;;
44165;SDS011;30476;53.468;9.826;2023-08-01T05:56:47;1.70;;;1.40;;
44165;SDS011;30476;53.468;9.826;2023-08-01T05:59:13;1.83;;;1.70;;
44165;SDS011;30476;53.468;9.826;2023-08-01T06:01:39;2.50;;;1.43;;
44165;SDS011;30476;53.468;9.826;2023-08-01T06:04:05;1.60;;;1.30;;
44165;SDS011;30476;53.468;9.826;2023-08-01T06:06:30;2.43;;;1.70;;
44165;SDS011;30476;53.468;9.826;2023-08-01T06:08:56;2.90;;;1.70;;
44165;SDS011;30476;53.468;9.826;2023-08-01T06:11:22;1.97;;;1.60;;
44165;SDS011;30476;53.468;9.826;2023-08-01T06:13:48;3.67;;;1.70;;
44165;SDS011;30476;53.468;9.826;2023-08-01T06:16:14;2.53;;;2.00;;
44165;SDS011;30476;53.468;9.826;2023-08-01T06:18:40;1.77;;;1.50;;
44165;SDS011;30476;53.468;9.826;2023-08-01T06:21:05;1.70;;;1.60;;
44165;SDS011;30476;53.468;9.826;2023-08-01T06:23:31;2.53;;;1.53;;
44165;SDS011;30476;53.468;9.826;2023-08-01T06:25:57;1.70;;;1.60;;
44165;SDS011;30476;53.468;9.826;2023-08-01T06:28:23;1.67;;;1.50;;
44165;SDS011;30476;53.468;9.826;2023-08-01T06:30:48;3.50;;;1.00;;
44165;SDS011;30476;53.468;9.826;2023-08-01T06:33:14;1.33;;;1.23;;
44165;SDS011;30476;53.468;9.826;2023-08-01T06:35:40;1.80;;;1.13;;
44165;SDS011;30476;53.468;9.826;2023-08-01T06:38:06;0.97;;;0.90;;
44165;SDS011;30476;53.468;9.826;2023-08-01T06:40:31;1.23;;;1.13;;
44165;SDS011;30476;53.468;9.826;2023-08-01T06:42:57;1.30;;;1.20;;
44165;SDS011;30476;53.468;9.826;2023-08-01T06:45:23;1.00;;;1.00;;
44165;SDS011;30476;53.468;9.826;2023-08-01T06:47:49;5.33;;;1.23;;
44165;SDS011;30476;53.468;9.826;2023-08-01T06:50:14;2.33;;;1.17;;
44165;SDS011;30476;53.468;9.826;2023-08-01T06:52:40;1.33;;;1.10;;
44165;SDS011;30476;53.468;9.826;2023-08-01T06:55:06;0.90;;;0.90;;
44165;SDS011;30476;53.468;9.826;2023-08-01T06:57:32;0.70;;;0.70;;
44165;SDS011;30476;53.468;9.826;2023-08-01T06:59:58;1.20;;;1.10;;
44165;SDS011;30476;53.468;9.826;2023-08-01T07:02:23;1.10;;;1.10;;
44165;SDS011;30476;53.468;9.826;2023-08-01T07:04:50;1.93;;;1.00;;
44165;SDS011;30476;53.468;9.826;2023-08-01T07:07:16;1.23;;;0.90;;
44165;SDS011;30476;53.468;9.826;2023-08-01T07:09:42;1.17;;;1.00;;
44165;SDS011;30476;53.468;9.826;2023-08-01T07:12:07;1.30;;;1.10;;
44165;SDS011;30476;53.468;9.826;2023-08-01T07:14:34;4.80;;;1.50;;
44165;SDS011;30476;53.468;9.826;2023-08-01T07:17:00;1.10;;;1.00;;
44165;SDS011;30476;53.468;9.826;2023-08-01T07:19:25;2.00;;;1.27;;
44165;SDS011;30476;53.468;9.826;2023-08-01T07:21:51;1.80;;;1.60;;
44165;SDS011;30476;53.468;9.826;2023-08-01T07:24:17;1.53;;;1.10;;
44165;SDS011;30476;53.468;9.826;2023-08-01T07:26:42;1.27;;;1.27;;
44165;SDS011;30476;53.468;9.826;2023-08-01T07:29:08;2.53;;;1.37;;
44165;SDS011;30476;53.468;9.826;2023-08-01T07:31:35;1.43;;;1.33;;
44165;SDS011;30476;53.468;9.826;2023-08-01T07:34:01;1.50;;;1.40;;
44165;SDS011;30476;53.468;9.826;2023-08-01T07:36:27;2.20;;;1.20;;
44165;SDS011;30476;53.468;9.826;2023-08-01T07:38:53;1.50;;;1.40;;
44165;SDS011;30476;53.468;9.826;2023-08-01T07:41:21;5.93;;;1.67;;
44165;SDS011;30476;53.468;9.826;2023-08-01T07:43:47;2.10;;;1.30;;
44165;SDS011;30476;53.468;9.826;2023-08-01T07:46:13;1.60;;;1.50;;
44165;SDS011;30476;53.468;9.826;2023-08-01T07:48:39;2.10;;;1.53;;
44165;SDS011;30476;53.468;9.826;2023-08-01T07:51:05;2.00;;;1.87;;
44165;SDS011;30476;53.468;9.826;2023-08-01T07:53:35;4.83;;;1.40;;
44165;SDS011;30476;53.468;9.826;2023-08-01T07:56:01;1.67;;;1.20;;
44165;SDS011;30476;53.468;9.826;2023-08-01T07:58:27;3.03;;;1.30;;
44165;SDS011;30476;53.468;9.826;2023-08-01T08:00:54;6.63;;;1.60;;
44165;SDS011;30476;53.468;9.826;2023-08-01T08:03:19;1.80;;;1.27;;
44165;SDS011;30476;53.468;9.826;2023-08-01T08:05:47;2.53;;;1.47;;
44165;SDS011;30476;53.468;9.826;2023-08-01T08:08:14;5.33;;;1.53;;
44165;SDS011;30476;53.468;9.826;2023-08-01T08:10:40;2.47;;;1.37;;
44165;SDS011;30476;53.468;9.826;2023-08-01T08:13:05;2.67;;;1.70;;
44165;SDS011;30476;53.468;9.826;2023-08-01T08:15:31;1.70;;;1.60;;
44165;SDS011;30476;53.468;9.826;2023-08-01T08:18:00;5.37;;;2.20;;
44165;SDS011;30476;53.468;9.826;2023-08-01T08:20:29;2.07;;;1.90;;
44165;SDS011;30476;53.468;9.826;2023-08-01T08:22:55;2.20;;;2.10;;
44165;SDS011;30476;53.468;9.826;2023-08-01T08:25:21;1.60;;;1.50;;
44165;SDS011;30476;53.468;9.826;2023-08-01T08:27:48;5.27;;;1.70;;
44165;SDS011;30476;53.468;9.826;2023-08-01T08:30:14;4.27;;;1.87;;
44165;SDS011;30476;53.468;9.826;2023-08-01T08:32:40;2.30;;;2.10;;
44165;SDS011;30476;53.468;9.826;2023-08-01T08:35:06;2.10;;;1.90;;
44165;SDS011;30476;53.468;9.826;2023-08-01T08:37:32;2.90;;;2.70;;
44165;SDS011;30476;53.468;9.826;2023-08-01T08:39:57;2.97;;;2.33;;
44165;SDS011;30476;53.468;9.826;2023-08-01T08:42:23;2.00;;;1.90;;
44165;SDS011;30476;53.468;9.826;2023-08-01T08:44:50;1.97;;;1.73;;
44165;SDS011;30476;53.468;9.826;2023-08-01T08:47:21;1.70;;;1.60;;
44165;SDS011;30476;53.468;9.826;2023-08-01T08:49:50;1.93;;;1.60;;
44165;SDS011;30476;53.468;9.826;2023-08-01T08:52:18;1.73;;;1.63;;
44165;SDS011;30476;53.468;9.826;2023-08-01T08:54:44;1.90;;;1.43;;
44165;SDS011;30476;53.468;9.826;2023-08-01T08:57:11;1.40;;;1.30;;
44165;SDS011;30476;53.468;9.826;2023-08-01T08:59:38;3.43;;;1.40;;
44165;SDS011;30476;53.468;9.826;2023-08-01T09:02:04;1.93;;;1.20;;
44165;SDS011;30476;53.468;9.826;2023-08-01T09:04:31;1.10;;;1.10;;
44165;SDS011;30476;53.468;9.826;2023-08-01T09:06:58;1.07;;;0.97;;
44165;SDS011;30476;53.468;9.826;2023-08-01T09:09:28;1.40;;;1.03;;
44165;SDS011;30476;53.468;9.826;2023-08-01T09:11:54;1.03;;;1.03;;
44165;SDS011;30476;53.468;9.826;2023-08-01T09:14:21;1.37;;;1.00;;
44165;SDS011;30476;53.468;9.826;2023-08-01T09:16:47;1.20;;;1.10;;
44165;SDS011;30476;53.468;9.826;2023-08-01T09:19:20;0.90;;;0.90;;
44165;SDS011;30476;53.468;9.826;2023-08-01T09:21:47;1.07;;;1.07;;
44165;SDS011;30476;53.468;9.826;2023-08-01T09:24:14;1.07;;;1.07;;
44165;SDS011;30476;53.468;9.826;2023-08-01T09:26:41;1.93;;;1.30;;
44165;SDS011;30476;53.468;9.826;2023-08-01T09:29:08;1.20;;;1.10;;
44165;SDS011;30476;53.468;9.826;2023-08-01T09:31:35;1.07;;;1.07;;
44165;SDS011;30476;53.468;9.826;2023-08-01T09:34:03;0.83;;;0.83;;
44165;SDS011;30476;53.468;9.826;2023-08-01T09:36:32;1.10;;;1.10;;
44165;SDS011;30476;53.468;9.826;2023-08-01T09:39:03;1.30;;;1.17;;
44165;SDS011;30476;53.468;9.826;2023-08-01T09:41:29;1.20;;;1.20;;
44165;SDS011;30476;53.468;9.826;2023-08-01T09:43:56;1.10;;;1.00;;
44165;SDS011;30476;53.468;9.826;2023-08-01T09:46:23;1.20;;;1.10;;
44165;SDS011;30476;53.468;9.826;2023-08-01T09:48:49;1.00;;;1.00;;
44165;SDS011;30476;53.468;9.826;2023-08-01T09:51:16;1.63;;;0.70;;
44165;SDS011;30476;53.468;9.826;2023-08-01T09:53:46;0.90;;;0.80;;
44165;SDS011;30476;53.468;9.826;2023-08-01T09:56:20;0.80;;;0.80;;
44165;SDS011;30476;53.468;9.826;2023-08-01T09:58:46;0.80;;;0.80;;
44165;SDS011;30476;53.468;9.826;2023-08-01T10:01:17;0.83;;;0.83;;
44165;SDS011;30476;53.468;9.826;2023-08-01T10:03:48;1.33;;;1.17;;
44165;SDS011;30476;53.468;9.826;2023-08-01T10:06:17;0.70;;;0.60;;
44165;SDS011;30476;53.468;9.826;2023-08-01T10:08:53;1.57;;;0.70;;
44165;SDS011;30476;53.468;9.826;2023-08-01T10:11:19;0.73;;;0.70;;
44165;SDS011;30476;53.468;9.826;2023-08-01T10:13:46;0.50;;;0.50;;
44165;SDS011;30476;53.468;9.826;2023-08-01T10:16:13;0.80;;;0.80;;
44165;SDS011;30476;53.468;9.826;2023-08-01T10:18:40;0.70;;;0.70;;
44165;SDS011;30476;53.468;9.826;2023-08-01T10:21:08;0.80;;;0.80;;
44165;SDS011;30476;53.468;9.826;2023-08-01T10:23:37;0.80;;;0.80;;
44165;SDS011;30476;53.468;9.826;2023-08-01T10:26:08;1.90;;;0.70;;
44165;SDS011;30476;53.468;9.826;2023-08-01T10:28:39;1.13;;;0.77;;
44165;SDS011;30476;53.468;9.826;2023-08-01T10:31:13;1.73;;;0.60;;
44165;SDS011;30476;53.468;9.826;2023-08-01T10:33:41;0.50;;;0.50;;
44165;SDS011;30476;53.468;9.826;2023-08-01T10:36:15;0.87;;;0.70;;
44165;SDS011;30476;53.468;9.826;2023-08-01T10:38:48;0.70;;;0.63;;
44165;SDS011;30476;53.468;9.826;2023-08-01T10:41:55;0.67;;;0.67;;
44165;SDS011;30476;53.468;9.826;2023-08-01T10:44:10;0.67;;;0.67;;
44165;SDS011;30476;53.468;9.826;2023-08-01T10:46:50;1.43;;;0.80;;
44165;SDS011;30476;53.468;9.826;2023-08-01T10:49:17;1.23;;;0.90;;
44165;SDS011;30476;53.468;9.826;2023-08-01T10:51:43;0.73;;;0.73;;
44165;SDS011;30476;53.468;9.826;2023-08-01T10:54:23;0.90;;;0.70;;
44165;SDS011;30476;53.468;9.826;2023-08-01T10:56:50;0.77;;;0.77;;
44165;SDS011;30476;53.468;9.826;2023-08-01T10:59:17;0.80;;;0.80;;
44165;SDS011;30476;53.468;9.826;2023-08-01T11:01:44;0.77;;;0.60;;
44165;SDS011;30476;53.468;9.826;2023-08-01T11:04:14;0.60;;;0.60;;
44165;SDS011;30476;53.468;9.826;2023-08-01T11:06:45;0.50;;;0.50;;
44165;SDS011;30476;53.468;9.826;2023-08-01T11:09:15;0.40;;;0.40;;
44165;SDS011;30476;53.468;9.826;2023-08-01T11:11:50;0.40;;;0.30;;
44165;SDS011;30476;53.468;9.826;2023-08-01T11:14:21;0.50;;;0.50;;
44165;SDS011;30476;53.468;9.826;2023-08-01T11:16:54;0.50;;;0.40;;
44165;SDS011;30476;53.468;9.826;2023-08-01T11:19:23;0.73;;;0.60;;
44165;SDS011;30476;53.468;9.826;2023-08-01T11:21:51;0.90;;;0.40;;
44165;SDS011;30476;53.468;9.826;2023-08-01T11:24:18;0.50;;;0.50;;
44165;SDS011;30476;53.468;9.826;2023-08-01T11:26:46;0.87;;;0.37;;
44165;SDS011;30476;53.468;9.826;2023-08-01T11:29:13;0.40;;;0.30;;
44165;SDS011;30476;53.468;9.826;2023-08-01T11:31:40;0.60;;;0.50;;
44165;SDS011;30476;53.468;9.826;2023-08-01T11:34:07;0.73;;;0.50;;
44165;SDS011;30476;53.468;9.826;2023-08-01T11:36:36;0.53;;;0.50;;
44165;SDS011;30476;53.468;9.826;2023-08-01T11:39:04;0.53;;;0.53;;
44165;SDS011;30476;53.468;9.826;2023-08-01T11:41:30;0.50;;;0.50;;
44165;SDS011;30476;53.468;9.826;2023-08-01T11:44:00;0.57;;;0.50;;
44165;SDS011;30476;53.468;9.826;2023-08-01T11:46:34;0.50;;;0.50;;
44165;SDS011;30476;53.468;9.826;2023-08-01T11:49:06;0.73;;;0.40;;
44165;SDS011;30476;53.468;9.826;2023-08-01T11:51:39;0.57;;;0.50;;
44165;SDS011;30476;53.468;9.826;2023-08-01T11:54:07;0.47;;;0.40;;
44165;SDS011;30476;53.468;9.826;2023-08-01T11:56:36;0.60;;;0.60;;
44165;SDS011;30476;53.468;9.826;2023-08-01T11:59:09;0.87;;;0.87;;
44165;SDS011;30476;53.468;9.826;2023-08-01T12:01:39;0.40;;;0.40;;
44165;SDS011;30476;53.468;9.826;2023-08-01T12:04:09;0.50;;;0.50;;
44165;SDS011;30476;53.468;9.826;2023-08-01T12:06:35;0.50;;;0.33;;
44165;SDS011;30476;53.468;9.826;2023-08-01T12:09:08;0.70;;;0.50;;
44165;SDS011;30476;53.468;9.826;2023-08-01T12:11:38;0.50;;;0.50;;
44165;SDS011;30476;53.468;9.826;2023-08-01T12:14:09;0.63;;;0.63;;
44165;SDS011;30476;53.468;9.826;2023-08-01T12:16:37;0.53;;;0.50;;
44165;SDS011;30476;53.468;9.826;2023-08-01T12:19:04;0.70;;;0.70;;
44165;SDS011;30476;53.468;9.826;2023-08-01T12:21:31;0.40;;;0.40;;
44165;SDS011;30476;53.468;9.826;2023-08-01T12:23:57;0.50;;;0.47;;
44165;SDS011;30476;53.468;9.826;2023-08-01T12:26:23;0.67;;;0.57;;
44165;SDS011;30476;53.468;9.826;2023-08-01T12:28:50;0.67;;;0.40;;
44165;SDS011;30476;53.468;9.826;2023-08-01T12:31:16;0.40;;;0.30;;
44165;SDS011;30476;53.468;9.826;2023-08-01T12:33:46;0.50;;;0.50;;
44165;SDS011;30476;53.468;9.826;2023-08-01T12:36:13;0.50;;;0.50;;
44165;SDS011;30476;53.468;9.826;2023-08-01T12:38:39;0.50;;;0.50;;
44165;SDS011;30476;53.468;9.826;2023-08-01T12:41:05;0.83;;;0.63;;
44165;SDS011;30476;53.468;9.826;2023-08-01T12:43:31;0.60;;;0.60;;
44165;SDS011;30476;53.468;9.826;2023-08-01T12:45:57;0.53;;;0.53;;
44165;SDS011;30476;53.468;9.826;2023-08-01T12:48:24;0.67;;;0.60;;
44165;SDS011;30476;53.468;9.826;2023-08-01T12:50:50;0.40;;;0.40;;
44165;SDS011;30476;53.468;9.826;2023-08-01T12:53:16;0.50;;;0.50;;
44165;SDS011;30476;53.468;9.826;2023-08-01T12:55:45;0.60;;;0.50;;
44165;SDS011;30476;53.468;9.826;2023-08-01T12:58:12;0.60;;;0.57;;
44165;SDS011;30476;53.468;9.826;2023-08-01T13:00:39;0.60;;;0.60;;
44165;SDS011;30476;53.468;9.826;2023-08-01T13:03:05;0.40;;;0.40;;
44165;SDS011;30476;53.468;9.826;2023-08-01T13:05:36;4.93;;;0.73;;
44165;SDS011;30476;53.468;9.826;2023-08-01T13:08:03;1.33;;;0.57;;
44165;SDS011;30476;53.468;9.826;2023-08-01T13:10:30;4.93;;;0.53;;
44165;SDS011;30476;53.468;9.826;2023-08-01T13:12:57;0.40;;;0.40;;
44165;SDS011;30476;53.468;9.826;2023-08-01T13:15:23;0.90;;;0.50;;
44165;SDS011;30476;53.468;9.826;2023-08-01T13:17:49;0.70;;;0.67;;
44165;SDS011;30476;53.468;9.826;2023-08-01T13:20:15;1.70;;;0.73;;
44165;SDS011;30476;53.468;9.826;2023-08-01T13:22:42;0.60;;;0.60;;
44165;SDS011;30476;53.468;9.826;2023-08-01T13:25:08;0.70;;;0.70;;
44165;SDS011;30476;53.468;9.826;2023-08-01T13:27:34;0.60;;;0.60;;
44165;SDS011;30476;53.468;9.826;2023-08-01T13:30:01;0.60;;;0.60;;
44165;SDS011;30476;53.468;9.826;2023-08-01T13:32:27;0.80;;;0.50;;
44165;SDS011;30476;53.468;9.826;2023-08-01T13:34:53;0.40;;;0.40;;
44165;SDS011;30476;53.468;9.826;2023-08-01T13:37:19;0.50;;;0.50;;
44165;SDS011;30476;53.468;9.826;2023-08-01T13:39:44;0.43;;;0.43;;
44165;SDS011;30476;53.468;9.826;2023-08-01T13:42:11;0.40;;;0.40;;
44165;SDS011;30476;53.468;9.826;2023-08-01T13:44:38;0.60;;;0.50;;
44165;SDS011;30476;53.468;9.826;2023-08-01T13:47:05;0.40;;;0.40;;
44165;SDS011;30476;53.468;9.826;2023-08-01T13:49:31;1.80;;;0.53;;
44165;SDS011;30476;53.468;9.826;2023-08-01T13:51:58;0.73;;;0.43;;
44165;SDS011;30476;53.468;9.826;2023-08-01T13:54:25;0.50;;;0.47;;
44165;SDS011;30476;53.468;9.826;2023-08-01T13:56:51;0.50;;;0.50;;
44165;SDS011;30476;53.468;9.826;2023-08-01T13:59:18;0.40;;;0.40;;
44165;SDS011;30476;53.468;9.826;2023-08-01T14:01:47;0.70;;;0.57;;
44165;SDS011;30476;53.468;9.826;2023-08-01T14:04:13;1.13;;;0.40;;
44165;SDS011;30476;53.468;9.826;2023-08-01T14:06:42;0.40;;;0.40;;
44165;SDS011;30476;53.468;9.826;2023-08-01T14:09:08;0.50;;;0.50;;
44165;SDS011;30476;53.468;9.826;2023-08-01T14:11:34;0.93;;;0.60;;
44165;SDS011;30476;53.468;9.826;2023-08-01T14:14:00;1.70;;;0.50;;
44165;SDS011;30476;53.468;9.826;2023-08-01T14:16:26;0.50;;;0.50;;
44165;SDS011;30476;53.468;9.826;2023-08-01T14:18:53;0.60;;;0.50;;
44165;SDS011;30476;53.468;9.826;2023-08-01T14:21:19;0.60;;;0.60;;
44165;SDS011;30476;53.468;9.826;2023-08-01T14:23:45;0.50;;;0.50;;
44165;SDS011;30476;53.468;9.826;2023-08-01T14:26:10;0.57;;;0.57;;
44165;SDS011;30476;53.468;9.826;2023-08-01T14:28:36;0.97;;;0.50;;
44165;SDS011;30476;53.468;9.826;2023-08-01T14:31:02;1.40;;;0.60;;
44165;SDS011;30476;53.468;9.826;2023-08-01T14:33:29;0.50;;;0.50;;
44165;SDS011;30476;53.468;9.826;2023-08-01T14:35:55;0.50;;;0.50;;
44165;SDS011;30476;53.468;9.826;2023-08-01T14:38:21;0.50;;;0.47;;
44165;SDS011;30476;53.468;9.826;2023-08-01T14:40:47;0.60;;;0.60;;
44165;SDS011;30476;53.468;9.826;2023-08-01T14:43:13;0.50;;;0.50;;
44165;SDS011;30476;53.468;9.826;2023-08-01T14:45:39;0.60;;;0.50;;